Time;durP1;ratioP1;P1;durP2;ratioP2;P2;SDS_P1;SDS_P2;PMS_P1;PMS_P2;Temp;Humidity;BMP_temperature;BMP_pressure;BME280_temperature;BME280_humidity;BME280_pressure;Samples;Min_cycle;Max_cycle;Signal;HPM_P1;HPM_P2
2022/06/09 00:03:25;;;;;;;2.17;1.88;;;;;;;19.53;56.35;96004.59;10160115;29;20056;-82
2022/06/09 00:08:48;;;;;;;1.70;1.60;;;;;;;19.52;56.24;96009.22;10191048;29;20063;-82
2022/06/09 00:14:08;;;;;;;3.03;1.90;;;;;;;19.52;56.40;96009.22;10155840;28;20058;-82
2022/06/09 00:19:28;;;;;;;2.33;1.70;;;;;;;19.51;56.47;95996.03;10161724;29;20516;-82
2022/06/09 00:24:47;;;;;;;2.85;1.63;;;;;;;19.50;56.46;95989.84;10160879;29;20063;-82
2022/06/09 00:30:09;;;;;;;2.00;1.90;;;;;;;19.51;56.58;95996.03;10186094;29;20060;-82
2022/06/09 00:35:28;;;;;;;1.70;1.60;;;;;;;19.50;56.60;96006.06;10174976;29;20063;-82
2022/06/09 00:40:48;;;;;;;3.45;1.90;;;;;;;19.50;56.53;96007.97;10164578;29;20059;-82
2022/06/09 00:46:18;;;;;;;2.60;1.70;;;;;;;19.48;56.57;96000.22;10183471;29;20064;-82
2022/06/09 00:51:41;;;;;;;3.30;1.65;;;;;;;19.49;56.65;96011.81;10169757;29;20855;-82
2022/06/09 00:57:10;;;;;;;1.60;1.50;;;;;;;19.48;56.55;95994.81;10172364;29;20074;-82
2022/06/09 01:02:29;;;;;;;1.60;1.50;;;;;;;19.47;56.46;95990.53;10165792;29;20052;-82
2022/06/09 01:07:53;;;;;;;1.73;1.60;;;;;;;19.47;56.25;95990.53;10176412;29;20052;-82
2022/06/09 01:13:12;;;;;;;2.08;1.85;;;;;;;19.46;56.29;95991.66;10168480;29;20044;-82
2022/06/09 01:18:42;;;;;;;2.28;1.92;;;;;;;19.47;56.06;96005.97;10171942;29;20518;-82
2022/06/09 01:24:16;;;;;;;1.75;1.65;;;;;;;19.45;56.12;96000.91;10172251;29;20052;-82
2022/06/09 01:29:49;;;;;;;2.38;1.50;;;;;;;19.44;56.16;95999.31;10156481;29;20508;-82
2022/06/09 01:35:21;;;;;;;1.63;1.52;;;;;;;19.44;56.26;95996.59;10175127;29;20056;-82
2022/06/09 01:40:40;;;;;;;2.60;1.58;;;;;;;19.44;56.37;95987.72;10188331;29;20067;-82
2022/06/09 01:46:07;;;;;;;1.50;1.40;;;;;;;19.43;56.54;95989.66;10158177;29;20578;-82
2022/06/09 01:51:28;;;;;;;1.58;1.48;;;;;;;19.43;56.61;95997.75;10157994;29;20622;-82
2022/06/09 01:56:52;;;;;;;2.10;1.48;;;;;;;19.43;56.56;95992.34;10172507;29;20585;-82
2022/06/09 02:02:21;;;;;;;2.40;1.60;;;;;;;19.43;56.62;95996.97;10182082;29;20519;-82
2022/06/09 02:07:42;;;;;;;2.35;1.65;;;;;;;19.42;56.63;95993.47;10172350;29;20060;-82
2022/06/09 02:13:23;;;;;;;1.30;1.20;;;;;;;19.42;56.58;95998.09;10159105;29;20052;-82
2022/06/09 02:18:46;;;;;;;1.73;1.45;;;;;;;19.41;56.68;95994.59;10175743;29;20052;-82
2022/06/09 02:24:05;;;;;;;2.35;1.55;;;;;;;19.41;56.62;95994.59;10169656;29;20057;-81
2022/06/09 02:29:25;;;;;;;1.63;1.27;;;;;;;19.42;56.64;96001.56;10187262;29;20071;-82
2022/06/09 02:34:44;;;;;;;1.40;1.30;;;;;;;19.41;56.66;96016.22;10178647;29;20487;-82
2022/06/09 02:40:05;;;;;;;1.38;1.27;;;;;;;19.40;56.63;96011.94;10191369;29;20060;-82
2022/06/09 02:45:24;;;;;;;1.60;1.23;;;;;;;19.39;56.57;96023.88;10191851;29;20608;-82
2022/06/09 02:50:46;;;;;;;1.15;1.05;;;;;;;19.40;56.44;96033.53;10166542;29;20072;-82
2022/06/09 02:56:05;;;;;;;1.02;1.02;;;;;;;19.39;56.45;96037.38;10177615;29;20059;-82
2022/06/09 03:01:25;;;;;;;1.17;1.08;;;;;;;19.40;56.60;96038.16;10177406;29;20556;-82
2022/06/09 03:06:45;;;;;;;1.42;1.10;;;;;;;19.38;56.51;96030.38;10174655;29;20099;-82
2022/06/09 03:12:05;;;;;;;1.27;1.05;;;;;;;19.39;56.48;96039.31;10187434;29;20055;-82
2022/06/09 03:17:25;;;;;;;1.30;1.20;;;;;;;19.37;56.58;96047.75;10183313;29;20327;-82
2022/06/09 03:22:45;;;;;;;1.10;1.00;;;;;;;19.38;56.57;96046.59;10174774;29;20416;-82
2022/06/09 03:28:05;;;;;;;2.03;1.05;;;;;;;19.36;56.56;96044.22;10191405;29;20051;-82
2022/06/09 03:33:24;;;;;;;1.38;1.05;;;;;;;19.37;56.54;96050.44;10189921;29;20115;-82
2022/06/09 03:38:44;;;;;;;1.25;1.00;;;;;;;19.37;56.62;96055.84;10190952;29;20040;-82
2022/06/09 03:44:04;;;;;;;1.20;1.02;;;;;;;19.37;56.56;96061.25;10199644;29;20052;-82
2022/06/09 03:49:24;;;;;;;1.10;0.90;;;;;;;19.37;56.54;96066.63;10188535;29;20055;-82
2022/06/09 03:54:43;;;;;;;1.10;1.00;;;;;;;19.36;56.67;96070.47;10176987;29;20106;-82
2022/06/09 04:00:05;;;;;;;1.33;1.00;;;;;;;19.36;56.48;96071.22;10175390;29;20700;-82
2022/06/09 04:05:25;;;;;;;1.10;1.00;;;;;;;19.35;56.57;96069.69;10159624;29;20657;-81
2022/06/09 04:10:45;;;;;;;2.30;0.95;;;;;;;19.36;56.80;96078.56;10175534;29;20056;-81
2022/06/09 04:16:06;;;;;;;1.30;1.00;;;;;;;19.36;56.69;96078.56;10145574;29;20064;-81
2022/06/09 04:21:27;;;;;;;2.03;1.20;;;;;;;19.36;56.91;96086.66;8399450;29;10001580;-81
2022/06/09 04:26:47;;;;;;;1.50;1.10;;;;;;;19.38;57.01;96089.81;10089568;29;20056;-81
2022/06/09 04:32:07;;;;;;;1.77;1.08;;;;;;;19.37;57.20;96085.53;10093246;29;20056;-81
2022/06/09 04:43:10;;;;;;;3.00;1.05;;;;;;;19.40;57.64;96092.19;10095702;29;20068;-81
2022/06/09 04:48:31;;;;;;;1.13;0.95;;;;;;;19.40;57.56;96092.19;10112813;29;20049;-85
2022/06/09 04:53:51;;;;;;;1.77;1.00;;;;;;;19.39;57.38;96096.81;10091495;29;20552;-81
2022/06/09 04:59:10;;;;;;;1.63;1.05;;;;;;;19.39;57.48;96104.13;10070579;29;20045;-81
2022/06/09 05:04:31;;;;;;;5.97;1.95;;;;;;;19.39;57.47;96123.03;10094806;29;20538;-81
2022/06/09 05:09:51;;;;;;;5.07;1.90;;;;;;;19.37;57.45;96123.34;10108144;29;20045;-81
2022/06/09 05:15:12;;;;;;;5.85;1.92;;;;;;;19.36;57.46;96130.66;10090678;29;20061;-81
2022/06/09 05:20:32;;;;;;;9.20;2.67;;;;;;;19.37;57.56;96139.56;10103860;29;20132;-81
2022/06/09 05:25:53;;;;;;;5.35;2.00;;;;;;;19.37;57.68;96139.56;10089746;29;20045;-81
2022/06/09 05:31:13;;;;;;;8.32;2.35;;;;;;;19.39;57.65;96150.03;10106114;29;20120;-81
2022/06/09 05:36:32;;;;;;;7.32;2.42;;;;;;;19.38;57.64;96149.22;10094378;29;20060;-81
2022/06/09 05:47:31;;;;;;;7.10;2.70;;;;;;;19.37;57.74;96147.66;10104104;29;20061;-81
2022/06/09 05:52:50;;;;;;;6.32;2.47;;;;;;;19.38;57.90;96162.72;10110115;29;20059;-81
2022/06/09 05:58:10;;;;;;;7.45;2.65;;;;;;;19.38;57.97;96161.94;10087713;29;20056;-82
2022/06/09 06:03:30;;;;;;;7.28;2.53;;;;;;;19.37;57.75;96163.88;10123352;29;20053;-82
2022/06/09 06:08:50;;;;;;;6.93;2.70;;;;;;;19.37;57.92;96161.16;10107529;29;20053;-81
2022/06/09 06:14:10;;;;;;;6.25;2.70;;;;;;;19.37;57.83;96166.56;10103841;29;20057;-81
2022/06/09 06:19:30;;;;;;;5.80;2.30;;;;;;;19.36;57.90;96170.38;10079681;29;20053;-81
2022/06/09 06:24:49;;;;;;;7.70;2.70;;;;;;;19.37;58.03;96180.09;10123349;29;20056;-81
2022/06/09 06:30:09;;;;;;;6.45;2.97;;;;;;;19.37;57.96;96177.38;10120007;29;20056;-81
2022/06/09 06:35:28;;;;;;;9.45;3.70;;;;;;;19.38;58.09;96188.97;10105973;29;20161;-81
2022/06/09 06:40:48;;;;;;;10.75;4.00;;;;;;;19.36;58.05;96190.06;10111696;29;20045;-81
2022/06/09 06:46:09;;;;;;;12.02;4.15;;;;;;;19.38;58.07;96197.84;10108906;29;20425;-81
2022/06/09 06:51:29;;;;;;;14.50;5.00;;;;;;;19.38;58.23;96200.53;10114045;29;20132;-81
2022/06/09 06:56:48;;;;;;;10.70;3.90;;;;;;;19.38;58.46;96205.94;10124849;29;20057;-81
2022/06/09 07:02:10;;;;;;;15.20;5.00;;;;;;;19.37;58.36;96207.09;10110763;29;20063;-82
2022/06/09 07:07:30;;;;;;;13.32;5.20;;;;;;;19.37;58.45;96212.50;10113021;29;20092;-81
2022/06/09 07:12:51;;;;;;;11.98;5.03;;;;;;;19.37;58.53;96220.59;10110974;29;20083;-81
2022/06/09 07:18:11;;;;;;;12.02;4.93;;;;;;;19.38;58.51;96224.06;10097732;29;20053;-81
2022/06/09 07:23:31;;;;;;;11.13;4.32;;;;;;;19.38;58.61;96226.78;10122450;29;20387;-81
2022/06/09 07:28:51;;;;;;;8.57;3.05;;;;;;;19.38;58.59;96238.38;10104915;29;20053;-82
2022/06/09 07:34:10;;;;;;;11.75;4.30;;;;;;;19.38;58.57;96230.25;10092065;29;20056;-82
2022/06/09 07:39:30;;;;;;;9.20;3.80;;;;;;;19.40;58.82;96244.22;10102164;29;20121;-82
2022/06/09 07:44:49;;;;;;;8.57;3.70;;;;;;;19.42;58.87;96246.59;10104950;29;20053;-82
2022/06/09 07:50:09;;;;;;;8.20;3.75;;;;;;;19.45;59.06;96256.72;10089169;29;20064;-82
2022/06/09 07:55:29;;;;;;;8.20;3.80;;;;;;;19.45;59.00;96245.94;10102417;29;20049;-82
2022/06/09 08:00:49;;;;;;;14.52;5.15;;;;;;;19.44;58.94;96244.34;10102274;29;20056;-81
2022/06/09 08:06:09;;;;;;;10.57;4.07;;;;;;;19.43;59.25;96251.66;10104009;29;20053;-82
2022/06/09 08:11:32;;;;;;;12.65;4.20;;;;;;;19.43;59.24;96262.47;10111395;29;20060;-82
2022/06/09 08:16:52;;;;;;;7.28;3.47;;;;;;;19.43;59.64;96272.50;10085357;29;20048;-82
2022/06/09 08:22:11;;;;;;;10.68;4.80;;;;;;;19.43;59.88;96275.97;10088490;29;20057;-82
2022/06/09 08:27:31;;;;;;;10.20;5.25;;;;;;;19.45;60.39;96281.03;10113457;29;20454;-82
2022/06/09 08:32:51;;;;;;;8.38;3.92;;;;;;;19.46;61.28;96288.78;10112666;29;20061;-81
2022/06/09 08:38:11;;;;;;;7.85;4.13;;;;;;;19.46;61.41;96291.50;10107160;29;20052;-81
2022/06/09 08:43:42;;;;;;;8.75;3.97;;;;;;;19.45;61.46;96300.72;10118276;29;20053;-81
2022/06/09 08:49:02;;;;;;;8.25;3.55;;;;;;;19.45;61.41;96303.44;10095345;29;20053;-82
2022/06/09 08:54:35;;;;;;;6.57;3.33;;;;;;;19.45;61.75;96298.03;10524437;27;20420;-55
2022/06/09 08:59:57;;;;;;;6.97;3.38;;;;;;;19.45;61.71;96306.13;10491281;28;20068;-55
2022/06/09 09:05:33;;;;;;;8.32;3.00;;;;;;;19.46;61.70;96312.31;10481717;28;20071;-55
2022/06/09 09:11:17;;;;;;;5.32;2.70;;;;;;;19.45;61.59;96316.94;10504679;28;20095;-52
2022/06/09 09:16:37;;;;;;;4.78;2.67;;;;;;;19.44;61.55;96315.34;10516314;28;20044;-55
2022/06/09 09:22:05;;;;;;;5.95;2.60;;;;;;;19.44;61.49;96318.06;10493198;28;20060;-55
2022/06/09 09:27:45;;;;;;;5.75;2.45;;;;;;;19.44;61.25;96323.44;10486975;28;20049;-55
2022/06/09 09:33:04;;;;;;;4.13;2.45;;;;;;;19.44;61.14;96322.66;10488925;28;20040;-55
2022/06/09 09:38:26;;;;;;;6.13;2.85;;;;;;;19.45;61.16;96337.78;10483695;28;20487;-55
2022/06/09 09:43:45;;;;;;;3.90;2.15;;;;;;;19.45;61.04;96338.56;10487566;28;20053;-55
2022/06/09 09:49:15;;;;;;;3.45;2.20;;;;;;;19.45;61.00;96337.78;10473972;28;20052;-54
2022/06/09 09:54:39;;;;;;;4.43;2.30;;;;;;;19.44;60.90;96339.66;10499111;28;20039;-55
2022/06/09 09:59:58;;;;;;;5.47;2.22;;;;;;;19.44;60.81;96342.38;10484679;28;20454;-54
2022/06/09 10:16:52;;;;;;;4.65;2.28;;;;;;;19.44;60.62;96363.19;10459883;28;20045;-55
2022/06/09 10:22:19;;;;;;;4.25;2.33;;;;;;;19.45;60.64;96364.78;10475753;28;20384;-54
2022/06/09 10:27:40;;;;;;;3.30;2.10;;;;;;;19.43;60.63;96370.50;10473342;28;20041;-55
2022/06/09 10:33:12;;;;;;;3.78;2.20;;;;;;;19.44;60.55;96385.59;10458054;28;20381;-55
2022/06/09 10:38:35;;;;;;;3.28;2.00;;;;;;;19.44;60.58;96385.59;10465015;28;20061;-55
2022/06/09 10:44:03;;;;;;;2.33;1.73;;;;;;;19.43;60.36;96378.63;10451615;28;20052;-55
2022/06/09 10:55:17;;;;;;;;;;;;;;;19.42;59.71;96393.22;10446828;28;20515;-54
2022/06/09 11:00:45;;;;;;;3.42;1.90;;;;;;;19.42;59.62;96393.22;10460209;28;20399;-54
2022/06/09 11:06:28;;;;;;;3.03;2.00;;;;;;;19.42;59.54;96397.84;10445774;28;20052;-55
2022/06/09 11:12:00;;;;;;;4.05;1.98;;;;;;;19.41;59.40;96402.47;10451036;28;20049;-55
2022/06/09 11:17:28;;;;;;;3.05;1.83;;;;;;;19.42;59.38;96400.56;10451556;28;20052;-54
2022/06/09 11:23:06;;;;;;;2.95;1.70;;;;;;;19.41;59.46;96417.91;10455079;28;20053;-55
2022/06/09 11:28:32;;;;;;;3.07;1.77;;;;;;;19.41;59.34;96429.50;10443964;28;20049;-55
2022/06/09 11:34:28;;;;;;;3.20;2.03;;;;;;;19.40;59.28;96425.19;10451226;28;20442;-54
2022/06/09 11:40:02;;;;;;;3.03;1.98;;;;;;;19.41;59.36;96429.50;10449770;28;20063;-55
2022/06/09 11:45:45;;;;;;;2.28;1.65;;;;;;;19.40;59.26;96419.78;10446917;28;20057;-54
2022/06/09 11:51:06;;;;;;;2.70;1.70;;;;;;;19.41;59.26;96423.31;10448181;28;20059;-54
2022/06/09 11:56:33;;;;;;;2.38;1.73;;;;;;;19.39;59.26;96431.72;10458617;28;20052;-54
2022/06/09 12:02:28;;;;;;;1.88;1.60;;;;;;;19.40;59.30;96438.69;10466908;28;20053;-55
2022/06/09 12:08:09;;;;;;;2.28;1.77;;;;;;;19.40;59.31;96437.91;10445830;28;20504;-54
2022/06/09 12:13:48;;;;;;;3.15;1.90;;;;;;;19.41;59.39;96455.72;10444836;28;20053;-55
2022/06/09 12:19:13;;;;;;;2.25;1.60;;;;;;;19.40;59.28;96459.53;10448196;28;20057;-54
2022/06/09 12:24:36;;;;;;;2.65;1.67;;;;;;;19.39;59.22;96468.78;10442394;28;20044;-52
2022/06/09 12:29:59;;;;;;;3.00;1.50;;;;;;;19.40;59.19;96470.34;10451470;28;20053;-54
2022/06/09 12:35:24;;;;;;;4.07;1.65;;;;;;;19.39;59.20;96469.56;10443826;28;20048;-54
2022/06/09 12:40:46;;;;;;;1.90;1.45;;;;;;;19.39;59.25;96474.94;10465710;28;20064;-55
2022/06/09 12:46:26;;;;;;;1.90;1.50;;;;;;;19.40;59.07;96478.44;10448752;28;20056;-55
2022/06/09 12:51:45;;;;;;;1.83;1.40;;;;;;;19.39;59.16;96474.94;10443021;28;20048;-55
2022/06/09 12:57:12;;;;;;;3.08;1.58;;;;;;;19.39;59.23;96480.34;10466537;28;20045;-55
2022/06/09 13:02:34;;;;;;;2.03;1.65;;;;;;;19.40;59.12;96491.94;10467120;28;20045;-55
2022/06/09 13:08:03;;;;;;;2.15;1.33;;;;;;;19.40;59.20;96491.94;10466562;28;20060;-55
2022/06/09 13:13:24;;;;;;;;;;;;;;;19.39;59.16;96512.78;10454089;28;20651;-55
2022/06/09 13:18:47;;;;;;;1.88;1.48;;;;;;;19.41;59.18;96509.75;10458041;28;20325;-53
2022/06/09 13:24:35;;;;;;;1.65;1.20;;;;;;;19.41;59.21;96515.94;10451719;28;20403;-55
2022/06/09 16:32:50;;;;;;;2.10;1.20;;;;;;;19.49;55.85;96628.53;10085766;24;20587;-53
2022/06/09 16:38:10;;;;;;;4.05;1.42;;;;;;;19.41;54.92;96634.78;10043099;29;20068;-50
2022/06/09 16:43:30;;;;;;;2.63;1.50;;;;;;;19.44;55.93;96638.75;10055390;29;20061;-57
2022/06/09 16:48:49;;;;;;;1.42;1.10;;;;;;;19.47;56.16;96646.19;10041222;29;20168;-55
2022/06/09 16:54:08;;;;;;;2.33;1.15;;;;;;;19.50;56.39;96657.16;10061669;29;20064;-54
2022/06/09 16:59:29;;;;;;;5.40;1.40;;;;;;;19.54;56.88;96660.78;10038014;29;20440;-54
2022/06/09 17:04:49;;;;;;;3.65;1.58;;;;;;;19.52;56.37;96665.72;10041997;29;20505;-53
2022/06/09 17:10:09;;;;;;;2.35;1.88;;;;;;;19.45;56.96;96672.75;10044023;29;20065;-55
2022/06/09 17:15:29;;;;;;;1.92;1.73;;;;;;;19.38;57.27;96667.84;10027820;29;20064;-54
2022/06/09 17:20:49;;;;;;;9.45;1.90;;;;;;;19.35;57.60;96679.31;10043024;29;20466;-52
2022/06/09 17:26:10;;;;;;;2.42;2.00;;;;;;;19.27;58.08;96688.25;10061837;29;20045;-55
2022/06/09 17:31:29;;;;;;;9.38;2.10;;;;;;;19.26;58.16;96683.97;10011449;29;20062;-55
2022/06/09 17:36:49;;;;;;;4.72;2.05;;;;;;;19.26;58.12;96697.47;10008975;29;20425;-54
2022/06/09 17:42:09;;;;;;;2.45;1.98;;;;;;;19.29;58.16;96696.84;10020960;29;20054;-55
2022/06/09 17:47:28;;;;;;;3.38;1.92;;;;;;;19.30;58.07;96698.41;10005336;29;20054;-55
2022/06/09 17:52:48;;;;;;;2.13;1.50;;;;;;;19.31;57.87;96697.28;10013765;29;20066;-55
2022/06/09 17:58:10;;;;;;;3.35;1.63;;;;;;;19.32;58.08;96702.34;10031050;29;20041;-55
2022/06/09 18:03:30;;;;;;;2.22;1.65;;;;;;;19.33;57.98;96716.66;10021307;29;20164;-54
2022/06/09 18:08:50;;;;;;;1.77;1.60;;;;;;;19.33;58.13;96728.25;10008551;29;20073;-54
2022/06/09 18:14:09;;;;;;;1.70;1.60;;;;;;;19.34;58.17;96729.81;10012381;29;20414;-54
2022/06/09 18:19:29;;;;;;;2.08;1.88;;;;;;;19.34;58.07;96754.13;10008949;29;20058;-55
2022/06/09 18:24:49;;;;;;;2.28;1.77;;;;;;;19.35;58.03;96752.25;10012921;29;20287;-55
2022/06/09 18:30:08;;;;;;;2.50;2.00;;;;;;;19.34;57.93;96756.06;10006934;29;20066;-55
2022/06/09 18:35:28;;;;;;;2.17;1.95;;;;;;;19.34;58.00;96769.56;10010293;29;20440;-55
2022/06/09 18:40:49;;;;;;;2.40;2.20;;;;;;;19.34;58.21;96769.56;10017638;29;20060;-55
2022/06/09 18:46:10;;;;;;;2.38;2.03;;;;;;;19.34;58.06;96774.97;10021120;29;20061;-55
2022/06/09 18:51:31;;;;;;;2.30;2.10;;;;;;;19.33;58.19;96784.97;10017184;29;20707;-54
2022/06/09 18:56:52;;;;;;;2.75;2.20;;;;;;;19.33;58.06;96779.59;10030951;29;20061;-55
2022/06/09 19:02:11;;;;;;;3.03;2.08;;;;;;;19.33;58.20;96789.59;10019033;29;20054;-55
2022/06/09 19:07:30;;;;;;;2.95;2.67;;;;;;;19.33;58.18;96792.31;10019798;29;20058;-55
2022/06/09 19:12:50;;;;;;;3.15;2.30;;;;;;;19.32;58.06;96806.91;10019893;29;20061;-55
2022/06/09 19:18:09;;;;;;;2.97;2.22;;;;;;;19.32;57.94;96809.59;10017336;29;20065;-55
2022/06/09 19:23:29;;;;;;;4.40;2.47;;;;;;;19.32;58.01;96821.19;10033551;29;20058;-55
2022/06/09 19:28:49;;;;;;;4.32;2.50;;;;;;;19.31;58.06;96824.25;10023370;29;20061;-55
2022/06/09 19:34:08;;;;;;;2.53;2.13;;;;;;;19.31;58.13;96835.84;10013221;29;20061;-56
2022/06/09 19:39:28;;;;;;;3.45;2.60;;;;;;;19.32;57.99;96855.53;10013010;29;20463;-55
2022/06/09 19:44:47;;;;;;;4.22;2.67;;;;;;;19.30;57.97;96853.16;10010189;29;20474;-56
2022/06/09 19:50:12;;;;;;;4.05;3.03;;;;;;;19.30;57.87;96861.25;10009637;29;20062;-55
2022/06/09 19:55:33;;;;;;;3.58;2.65;;;;;;;19.29;58.05;96872.41;10013734;29;20065;-55
2022/06/09 20:00:54;;;;;;;4.78;2.90;;;;;;;19.30;57.79;96887.47;10015344;29;20068;-55
2022/06/09 20:06:26;;;;;;;4.78;3.00;;;;;;;19.28;57.74;96893.19;10012940;29;20061;-55
2022/06/09 20:11:45;;;;;;;4.32;2.88;;;;;;;19.28;57.59;96898.59;10014970;29;20069;-55
2022/06/09 20:17:12;;;;;;;4.18;2.90;;;;;;;19.28;57.55;96889.69;10016089;29;20054;-55
2022/06/09 20:22:32;;;;;;;5.85;2.70;;;;;;;19.27;57.53;96893.53;10003813;29;20058;-55
2022/06/09 20:27:52;;;;;;;4.07;2.70;;;;;;;19.26;57.36;96902.72;10017922;29;20072;-55
2022/06/09 20:33:11;;;;;;;4.00;2.78;;;;;;;19.24;57.23;96897.66;10015306;29;20066;-55
2022/06/09 20:38:34;;;;;;;4.07;2.80;;;;;;;19.26;57.29;96900.03;10012097;29;20058;-55
2022/06/09 20:43:56;;;;;;;3.33;2.75;;;;;;;19.24;57.15;96913.06;10013964;29;20062;-53
2022/06/09 20:49:17;;;;;;;3.60;2.80;;;;;;;19.23;57.05;96914.97;10013917;29;20061;-55
2022/06/09 20:54:37;;;;;;;5.25;2.95;;;;;;;19.23;56.95;96919.56;10002683;29;20132;-55
2022/06/09 20:59:56;;;;;;;5.57;3.30;;;;;;;19.22;57.02;96918.00;10023261;29;20053;-55
2022/06/09 21:05:18;;;;;;;3.85;3.15;;;;;;;19.20;57.10;96915.59;10011088;29;20123;-53
2022/06/09 21:21:53;;;;;;;4.90;2.87;;;;;;;19.19;56.85;96924.00;10015477;29;20188;-54
2022/06/09 21:27:13;;;;;;;3.03;2.50;;;;;;;19.19;56.77;96929.41;10010968;29;20065;-55
2022/06/09 21:32:32;;;;;;;4.43;3.05;;;;;;;19.18;56.77;96928.63;10014621;29;20566;-55
2022/06/09 21:37:53;;;;;;;4.30;2.67;;;;;;;19.18;56.61;96939.44;9997644;29;20062;-55
2022/06/09 21:43:12;;;;;;;3.15;2.65;;;;;;;19.17;56.55;96946.75;10004498;29;20061;-55
2022/06/09 21:48:32;;;;;;;3.08;2.60;;;;;;;19.16;56.50;96961.34;9988992;29;20062;-55
2022/06/09 21:53:51;;;;;;;2.63;2.42;;;;;;;19.15;56.32;96961.66;9987771;29;20062;-55
2022/06/09 21:59:11;;;;;;;3.00;2.70;;;;;;;19.14;56.24;96960.09;9994463;29;20062;-55
2022/06/09 22:04:30;;;;;;;3.60;2.65;;;;;;;19.13;56.14;96963.88;9992686;29;20501;-55
2022/06/09 22:09:50;;;;;;;2.67;2.35;;;;;;;19.13;56.12;96966.59;9995709;29;20062;-55
2022/06/09 22:15:10;;;;;;;4.43;2.70;;;;;;;19.11;55.85;96975.03;10001188;29;20102;-55
2022/06/09 22:20:33;;;;;;;2.88;2.40;;;;;;;19.11;56.01;96983.13;10015960;29;20521;-55
2022/06/09 22:25:55;;;;;;;3.00;2.60;;;;;;;19.09;56.20;96982.66;10019470;29;20058;-55
2022/06/09 22:31:14;;;;;;;3.78;2.40;;;;;;;19.10;56.04;96992.31;10021548;29;20517;-54
2022/06/09 22:36:33;;;;;;;2.75;2.47;;;;;;;19.11;56.10;96993.13;10034931;29;20065;-55
2022/06/09 22:41:53;;;;;;;2.80;2.50;;;;;;;19.10;56.15;96994.25;10019656;29;20057;-55
2022/06/09 22:47:12;;;;;;;3.53;2.50;;;;;;;19.10;56.10;96999.63;10019346;29;20058;-55
2022/06/09 22:52:31;;;;;;;2.88;2.63;;;;;;;19.09;56.11;96998.03;10014743;29;20099;-55
2022/06/09 22:57:51;;;;;;;2.80;2.47;;;;;;;19.08;56.21;97010.75;10022137;29;20066;-55
2022/06/09 23:03:11;;;;;;;2.83;2.50;;;;;;;19.09;56.09;97006.13;10021663;29;20058;-55
2022/06/09 23:08:31;;;;;;;2.60;2.40;;;;;;;19.07;56.16;97009.19;10019220;29;20429;-55
2022/06/09 23:13:50;;;;;;;2.78;2.58;;;;;;;19.08;56.17;97013.44;10032607;29;20138;-55
2022/06/09 23:19:10;;;;;;;5.55;2.30;;;;;;;19.06;56.13;97007.56;10017801;29;20130;-55
2022/06/09 23:24:29;;;;;;;2.55;2.25;;;;;;;19.06;56.20;97002.16;10017640;29;20069;-55
2022/06/09 23:29:49;;;;;;;3.92;2.22;;;;;;;19.06;56.25;97004.09;10018475;29;20061;-55
2022/06/09 23:35:09;;;;;;;3.80;2.28;;;;;;;19.06;56.11;97006.78;10019398;29;20062;-55
2022/06/09 23:40:32;;;;;;;2.40;2.20;;;;;;;19.05;56.18;97002.47;10016317;29;20080;-55
2022/06/09 23:45:54;;;;;;;2.55;2.35;;;;;;;19.04;56.17;97004.41;10006571;29;20058;-55
2022/06/09 23:51:18;;;;;;;3.53;2.67;;;;;;;19.05;56.07;97007.88;10017723;29;20421;-55
2022/06/09 23:56:39;;;;;;;3.03;2.60;;;;;;;19.03;55.96;97019.00;10014966;29;20065;-55
